createdAt,value
2019-02-25T00:00:07.314Z,1034.8
2019-02-25T00:01:07.291Z,1034.82
2019-02-25T00:02:07.265Z,1034.83
2019-02-25T00:03:07.246Z,1034.84
2019-02-25T00:04:07.227Z,1034.85
2019-02-25T00:05:07.205Z,1034.82
2019-02-25T00:06:07.179Z,1034.81
2019-02-25T00:07:07.158Z,1034.78
2019-02-25T00:08:07.141Z,1034.76
2019-02-25T00:09:07.119Z,1034.74
2019-02-25T00:10:07.098Z,1034.71
2019-02-25T00:11:07.071Z,1034.76
2019-02-25T00:12:07.056Z,1034.74
2019-02-25T00:13:07.030Z,1034.79
2019-02-25T00:14:07.016Z,1034.76
2019-02-25T00:15:06.986Z,1034.78
2019-02-25T00:16:06.964Z,1034.7
2019-02-25T00:17:06.942Z,1034.69
2019-02-25T00:18:06.926Z,1034.71
2019-02-25T00:19:06.904Z,1034.73
2019-02-25T00:20:06.878Z,1034.78
2019-02-25T00:21:06.858Z,1034.76
2019-02-25T00:22:06.845Z,1034.76
2019-02-25T00:23:06.817Z,1034.79
2019-02-25T00:24:06.790Z,1034.79
2019-02-25T00:25:06.770Z,1034.84
2019-02-25T00:26:06.749Z,1034.83
2019-02-25T00:27:06.730Z,1034.81
2019-02-25T00:28:06.705Z,1034.76
2019-02-25T00:29:06.689Z,1034.77
2019-02-25T00:30:06.664Z,1034.75
2019-02-25T00:31:06.644Z,1034.75
2019-02-25T00:32:06.622Z,1034.73
2019-02-25T00:33:06.602Z,1034.74
2019-02-25T00:34:06.574Z,1034.81
2019-02-25T00:35:06.555Z,1034.78
2019-02-25T00:36:06.537Z,1034.75
2019-02-25T00:37:06.515Z,1034.86
2019-02-25T00:38:06.489Z,1034.76
2019-02-25T00:39:06.467Z,1034.82
2019-02-25T00:40:06.450Z,1034.78
2019-02-25T00:41:06.429Z,1034.77
2019-02-25T00:42:06.407Z,1034.74
2019-02-25T00:43:06.381Z,1034.75
2019-02-25T00:44:06.364Z,1034.76
2019-02-25T00:45:06.338Z,1034.85
2019-02-25T00:46:06.321Z,1034.88
2019-02-25T00:47:06.295Z,1034.82
2019-02-25T00:48:06.274Z,1034.83
2019-02-25T00:49:06.251Z,1034.84
2019-02-25T00:50:06.241Z,1034.87
2019-02-25T00:51:06.217Z,1034.91
2019-02-25T00:52:06.191Z,1034.88
2019-02-25T00:53:06.167Z,1034.9
2019-02-25T00:54:06.149Z,1034.88
2019-02-25T00:55:06.127Z,1034.9
2019-02-25T00:56:06.100Z,1034.86
2019-02-25T00:57:06.078Z,1034.88
2019-02-25T00:58:06.058Z,1034.84
2019-02-25T00:59:06.040Z,1034.83
2019-02-25T01:00:06.020Z,1034.86
2019-02-25T01:01:05.998Z,1034.81
2019-02-25T01:02:05.971Z,1034.82
2019-02-25T01:03:05.956Z,1034.83
2019-02-25T01:04:05.933Z,1034.78
2019-02-25T01:05:05.911Z,1034.8
2019-02-25T01:06:05.886Z,1034.77
2019-02-25T01:07:05.863Z,1034.79
2019-02-25T01:08:07.689Z,1034.8
2019-02-25T01:09:05.825Z,1034.83
2019-02-25T01:10:05.800Z,1034.81
2019-02-25T01:11:05.777Z,1034.81
2019-02-25T01:12:05.759Z,1034.84
2019-02-25T01:13:05.738Z,1034.86
2019-02-25T01:14:05.716Z,1034.87
2019-02-25T01:15:06.208Z,1034.81
2019-02-25T01:16:05.674Z,1034.75
2019-02-25T01:17:05.647Z,1034.78
2019-02-25T01:18:05.629Z,1034.78
2019-02-25T01:19:05.604Z,1034.7
2019-02-25T01:20:05.586Z,1034.71
2019-02-25T01:21:05.561Z,1034.72
2019-02-25T01:22:05.543Z,1034.76
2019-02-25T01:23:05.522Z,1034.73
2019-02-25T01:24:05.496Z,1034.75
2019-02-25T01:25:05.477Z,1034.76
2019-02-25T01:26:05.457Z,1034.78
2019-02-25T01:27:05.435Z,1034.79
2019-02-25T01:28:05.410Z,1034.76
2019-02-25T01:29:05.387Z,1034.76
2019-02-25T01:30:05.366Z,1034.75
2019-02-25T01:31:05.350Z,1034.72
2019-02-25T01:32:05.323Z,1034.72
2019-02-25T01:33:05.307Z,1034.73
2019-02-25T01:34:05.279Z,1034.68
2019-02-25T01:35:05.262Z,1034.76
2019-02-25T01:36:05.240Z,1034.77
2019-02-25T01:37:05.220Z,1034.79
2019-02-25T01:38:05.193Z,1034.78
2019-02-25T01:39:05.171Z,1034.81
2019-02-25T01:40:05.154Z,1034.8
2019-02-25T01:41:05.132Z,1034.81
2019-02-25T01:42:05.106Z,1034.77
2019-02-25T01:43:05.085Z,1034.82
2019-02-25T01:44:05.067Z,1034.78
2019-02-25T01:45:05.046Z,1034.78
2019-02-25T01:46:05.025Z,1034.86
2019-02-25T01:47:04.998Z,1034.84
2019-02-25T01:48:04.980Z,1034.84
2019-02-25T01:49:04.955Z,1034.88
2019-02-25T01:50:04.938Z,1034.85
2019-02-25T01:51:04.911Z,1034.87
2019-02-25T01:52:04.890Z,1034.88
2019-02-25T01:53:04.868Z,1034.92
2019-02-25T01:54:04.851Z,1034.86
2019-02-25T01:55:04.828Z,1034.84
2019-02-25T01:56:04.803Z,1034.88
2019-02-25T01:57:04.782Z,1034.91
2019-02-25T01:58:04.763Z,1034.87
2019-02-25T01:59:04.743Z,1034.89
2019-02-25T02:00:04.717Z,1034.87
2019-02-25T02:01:04.695Z,1034.91
2019-02-25T02:02:04.672Z,1034.91
2019-02-25T02:03:04.655Z,1034.92
2019-02-25T02:04:04.630Z,1034.97
2019-02-25T02:05:04.613Z,1034.97
2019-02-25T02:06:04.588Z,1034.99
2019-02-25T02:07:04.576Z,1034.98
2019-02-25T02:08:04.546Z,1035
2019-02-25T02:09:04.526Z,1035.05
2019-02-25T02:10:04.501Z,1035
2019-02-25T02:11:04.478Z,1035.05
2019-02-25T02:12:04.460Z,1034.97
2019-02-25T02:13:13.669Z,1034.98
2019-02-25T02:14:04.412Z,1034.98
2019-02-25T02:15:04.393Z,1034.99
2019-02-25T02:16:04.374Z,1034.97
2019-02-25T02:17:04.351Z,1034.95
2019-02-25T02:18:04.332Z,1034.97
2019-02-25T02:19:04.304Z,1034.92
2019-02-25T02:20:04.287Z,1034.83
2019-02-25T02:21:04.261Z,1034.84
2019-02-25T02:22:04.244Z,1034.79
2019-02-25T02:23:04.218Z,1034.79
2019-02-25T02:24:04.195Z,1034.81
2019-02-25T02:25:04.174Z,1034.76
2019-02-25T02:26:04.157Z,1034.71
2019-02-25T02:27:04.135Z,1034.7
2019-02-25T02:28:04.109Z,1034.65
2019-02-25T02:29:04.087Z,1034.6
2019-02-25T02:30:04.072Z,1034.6
2019-02-25T02:31:04.049Z,1034.63
2019-02-25T02:32:04.023Z,1034.62
2019-02-25T02:33:04.005Z,1034.64
2019-02-25T02:34:03.979Z,1034.64
2019-02-25T02:35:03.963Z,1034.59
2019-02-25T02:36:03.937Z,1034.66
2019-02-25T02:37:03.918Z,1034.61
2019-02-25T02:38:03.892Z,1034.54
2019-02-25T02:39:03.875Z,1034.54
2019-02-25T02:40:03.855Z,1034.53
2019-02-25T02:41:03.835Z,1034.49
2019-02-25T02:42:03.806Z,1034.47
2019-02-25T02:43:03.787Z,1034.46
2019-02-25T02:44:03.791Z,1034.47
2019-02-25T02:45:03.747Z,1034.49
2019-02-25T02:46:03.720Z,1034.46
2019-02-25T02:47:03.697Z,1034.48
2019-02-25T02:48:03.681Z,1034.53
2019-02-25T02:49:03.669Z,1034.54
2019-02-25T02:50:03.636Z,1034.51
2019-02-25T02:51:03.615Z,1034.54
2019-02-25T02:52:03.590Z,1034.54
2019-02-25T02:53:03.570Z,1034.62
2019-02-25T02:54:03.545Z,1034.59
2019-02-25T02:55:03.530Z,1034.56
2019-02-25T02:56:03.506Z,1034.57
2019-02-25T02:57:03.492Z,1034.62
2019-02-25T02:58:03.460Z,1034.58
2019-02-25T02:59:03.437Z,1034.58
2019-02-25T03:00:03.420Z,1034.54
2019-02-25T03:01:03.398Z,1034.58
2019-02-25T03:02:03.371Z,1034.59
2019-02-25T03:03:03.350Z,1034.59
2019-02-25T03:04:03.336Z,1034.59
2019-02-25T03:05:03.311Z,1034.58
2019-02-25T03:06:03.292Z,1034.6
2019-02-25T03:07:03.268Z,1034.6
2019-02-25T03:08:03.245Z,1034.6
2019-02-25T03:09:03.219Z,1034.54
2019-02-25T03:10:03.202Z,1034.57
2019-02-25T03:11:03.175Z,1034.57
2019-02-25T03:12:03.153Z,1034.6
2019-02-25T03:13:03.164Z,1034.6
2019-02-25T03:14:03.117Z,1034.56
2019-02-25T03:15:03.093Z,1034.54
2019-02-25T03:16:03.068Z,1034.54
2019-02-25T03:17:03.045Z,1034.58
2019-02-25T03:18:03.028Z,1034.57
2019-02-25T03:19:03.007Z,1034.58
2019-02-25T03:20:02.981Z,1034.59
2019-02-25T03:21:02.959Z,1034.55
2019-02-25T03:22:02.939Z,1034.63
2019-02-25T03:23:02.919Z,1034.59
2019-02-25T03:24:02.903Z,1034.59
2019-02-25T03:25:02.877Z,1034.64
2019-02-25T03:26:02.859Z,1034.64
2019-02-25T03:27:02.835Z,1034.62
2019-02-25T03:28:02.810Z,1034.57
2019-02-25T03:29:02.790Z,1034.53
2019-02-25T03:30:02.776Z,1034.55
2019-02-25T03:31:02.745Z,1034.59
2019-02-25T03:32:02.878Z,1034.56
2019-02-25T03:33:02.703Z,1034.55
2019-02-25T03:34:02.677Z,1034.54
2019-02-25T03:35:02.653Z,1034.54
2019-02-25T03:36:02.641Z,1034.51
2019-02-25T03:37:02.614Z,1034.58
2019-02-25T03:38:02.601Z,1034.53
2019-02-25T03:39:02.567Z,1034.53
2019-02-25T03:40:02.552Z,1034.51
2019-02-25T03:41:02.523Z,1034.51
2019-02-25T03:42:02.507Z,1034.48
2019-02-25T03:43:02.481Z,1034.44
2019-02-25T03:44:02.458Z,1034.45
2019-02-25T03:45:02.436Z,1034.42
2019-02-25T03:46:02.421Z,1034.47
2019-02-25T03:47:02.398Z,1034.43
2019-02-25T03:48:02.373Z,1034.42
2019-02-25T03:49:02.349Z,1034.4
2019-02-25T03:50:02.336Z,1034.44
2019-02-25T03:51:02.311Z,1034.5
2019-02-25T03:52:02.283Z,1034.51
2019-02-25T03:53:02.262Z,1034.49
2019-02-25T03:54:02.241Z,1034.47
2019-02-25T03:55:02.222Z,1034.46
2019-02-25T03:56:02.196Z,1034.49
2019-02-25T03:57:02.178Z,1034.5
2019-02-25T03:58:02.153Z,1034.49
2019-02-25T03:59:02.135Z,1034.48
2019-02-25T04:00:02.116Z,1034.51
2019-02-25T04:01:02.092Z,1034.53
2019-02-25T04:02:02.067Z,1034.57
2019-02-25T04:03:02.048Z,1034.54
2019-02-25T04:04:02.026Z,1034.56
2019-02-25T04:05:02.005Z,1034.63
2019-02-25T04:06:01.981Z,1034.62
2019-02-25T04:07:01.956Z,1034.68
2019-02-25T04:08:01.943Z,1034.69
2019-02-25T04:09:01.919Z,1034.64
2019-02-25T04:10:01.894Z,1034.62
2019-02-25T04:11:01.874Z,1034.58
2019-02-25T04:12:01.852Z,1034.64
2019-02-25T04:13:01.828Z,1034.63
2019-02-25T04:14:01.811Z,1034.65
2019-02-25T04:15:01.784Z,1034.62
2019-02-25T04:16:01.763Z,1034.61
2019-02-25T04:17:01.745Z,1034.65
2019-02-25T04:18:01.722Z,1034.64
2019-02-25T04:19:01.700Z,1034.64
2019-02-25T04:20:01.675Z,1034.65
2019-02-25T04:21:01.652Z,1034.66
2019-02-25T04:22:01.637Z,1034.65
2019-02-25T04:23:01.613Z,1034.66
2019-02-25T04:24:01.587Z,1034.65
2019-02-25T04:25:01.568Z,1034.62
2019-02-25T04:26:01.544Z,1034.61
2019-02-25T04:27:01.528Z,1034.66
2019-02-25T04:28:01.501Z,1034.62
2019-02-25T04:29:01.483Z,1034.63
2019-02-25T04:30:01.457Z,1034.65
2019-02-25T04:31:01.440Z,1034.68
2019-02-25T04:32:01.417Z,1034.68
2019-02-25T04:33:01.396Z,1034.74
2019-02-25T04:34:01.368Z,1034.71
2019-02-25T04:35:01.346Z,1034.74
2019-02-25T04:36:01.329Z,1034.68
2019-02-25T04:37:01.308Z,1034.7
2019-02-25T04:38:02.897Z,1034.74
2019-02-25T04:39:01.259Z,1034.72
2019-02-25T04:40:01.244Z,1034.68
2019-02-25T04:41:01.220Z,1034.72
2019-02-25T04:42:01.199Z,1034.68
2019-02-25T04:43:01.177Z,1034.72
2019-02-25T04:44:01.155Z,1034.72
2019-02-25T04:45:01.140Z,1034.73
2019-02-25T04:46:01.111Z,1034.72
2019-02-25T04:47:01.084Z,1034.71
2019-02-25T04:48:01.063Z,1034.64
2019-02-25T04:49:01.042Z,1034.63
2019-02-25T04:50:01.027Z,1034.67
2019-02-25T04:51:01.013Z,1034.63
2019-02-25T04:52:00.976Z,1034.62
2019-02-25T04:53:00.955Z,1034.64
2019-02-25T04:54:00.938Z,1034.65
2019-02-25T04:55:00.915Z,1034.64
2019-02-25T04:56:00.889Z,1034.65
2019-02-25T04:57:00.966Z,1034.59
2019-02-25T04:58:00.845Z,1034.61
2019-02-25T04:59:00.842Z,1034.61
2019-02-25T05:00:00.802Z,1034.58
2019-02-25T05:01:00.783Z,1034.62
2019-02-25T05:02:02.307Z,1034.6
2019-02-25T05:03:00.743Z,1034.64
2019-02-25T05:04:00.719Z,1034.61
2019-02-25T05:05:00.879Z,1034.57
2019-02-25T05:06:00.677Z,1034.57
2019-02-25T05:07:00.663Z,1034.55
2019-02-25T05:08:00.677Z,1034.52
2019-02-25T05:09:00.619Z,1034.49
2019-02-25T05:10:00.589Z,1034.5
2019-02-25T05:11:00.571Z,1034.5
2019-02-25T05:12:00.705Z,1034.51
2019-02-25T05:13:00.548Z,1034.46
2019-02-25T05:14:00.503Z,1034.47
2019-02-25T05:15:00.475Z,1034.46
2019-02-25T05:16:00.457Z,1034.43
2019-02-25T05:17:00.430Z,1034.43
2019-02-25T05:18:00.414Z,1034.42
2019-02-25T05:19:00.385Z,1034.42
2019-02-25T05:20:00.364Z,1034.43
2019-02-25T05:21:00.345Z,1034.48
2019-02-25T05:22:00.328Z,1034.49
2019-02-25T05:23:00.306Z,1034.46
2019-02-25T05:24:00.277Z,1034.47
2019-02-25T05:25:00.504Z,1034.51
2019-02-25T05:26:00.238Z,1034.53
2019-02-25T05:27:00.214Z,1034.5
2019-02-25T05:28:00.189Z,1034.5
2019-02-25T05:29:00.169Z,1034.49
2019-02-25T05:30:00.361Z,1034.48
2019-02-25T05:31:00.128Z,1034.45
2019-02-25T05:32:00.102Z,1034.47
2019-02-25T05:33:00.085Z,1034.49
2019-02-25T05:34:00.062Z,1034.48
2019-02-25T05:35:00.042Z,1034.43
2019-02-25T05:36:00.019Z,1034.43
2019-02-25T05:36:59.998Z,1034.47
2019-02-25T05:37:59.971Z,1034.71
2019-02-25T05:38:59.951Z,1034.59
2019-02-25T05:39:59.932Z,1034.67
2019-02-25T05:40:59.911Z,1034.65
2019-02-25T05:41:59.885Z,1034.72
2019-02-25T05:42:59.869Z,1034.72
2019-02-25T05:43:59.844Z,1034.73
2019-02-25T05:44:59.822Z,1034.72
2019-02-25T05:45:59.800Z,1034.75
2019-02-25T05:46:59.774Z,1034.71
2019-02-25T05:47:59.758Z,1034.69
2019-02-25T05:48:59.739Z,1034.69
2019-02-25T05:49:59.712Z,1034.66
2019-02-25T05:50:59.711Z,1034.63
2019-02-25T05:51:59.670Z,1034.63
2019-02-25T05:52:59.643Z,1034.57
2019-02-25T05:53:59.626Z,1034.56
2019-02-25T05:54:59.606Z,1034.64
2019-02-25T05:55:59.577Z,1034.64
2019-02-25T05:56:59.554Z,1034.6
2019-02-25T05:57:59.537Z,1034.61
2019-02-25T05:58:59.545Z,1034.57
2019-02-25T05:59:59.490Z,1034.6
2019-02-25T06:00:59.474Z,1034.56
2019-02-25T06:01:59.447Z,1034.62
2019-02-25T06:02:59.429Z,1034.44
2019-02-25T06:03:59.403Z,1034.43
2019-02-25T06:04:59.383Z,1034.43
2019-02-25T06:05:59.430Z,1034.46
2019-02-25T06:06:59.339Z,1034.42
2019-02-25T06:07:59.318Z,1034.49
2019-02-25T06:08:59.296Z,1034.49
2019-02-25T06:09:59.272Z,1034.49
2019-02-25T06:10:59.247Z,1034.55
2019-02-25T06:11:59.229Z,1034.52
2019-02-25T06:12:59.208Z,1034.56
2019-02-25T06:13:59.183Z,1034.58
2019-02-25T06:14:59.160Z,1034.58
2019-02-25T06:15:59.138Z,1034.55
2019-02-25T06:16:59.137Z,1034.59
2019-02-25T06:17:59.095Z,1034.56
2019-02-25T06:18:59.093Z,1034.59
2019-02-25T06:19:59.050Z,1034.61
2019-02-25T06:20:59.032Z,1034.62
2019-02-25T06:21:59.012Z,1034.71
2019-02-25T06:22:58.989Z,1034.71
2019-02-25T06:23:58.966Z,1034.69
2019-02-25T06:24:58.945Z,1034.73
2019-02-25T06:25:58.920Z,1034.67
2019-02-25T06:26:58.942Z,1034.69
2019-02-25T06:27:58.879Z,1034.68
2019-02-25T06:28:58.859Z,1034.69
2019-02-25T06:29:58.902Z,1034.69
2019-02-25T06:30:58.809Z,1034.62
2019-02-25T06:31:58.792Z,1034.63
2019-02-25T06:32:58.773Z,1034.71
2019-02-25T06:33:58.751Z,1034.67
2019-02-25T06:34:58.722Z,1034.69
2019-02-25T06:35:58.703Z,1034.73
2019-02-25T06:36:58.689Z,1034.69
2019-02-25T06:37:58.765Z,1034.74
2019-02-25T06:38:58.634Z,1034.82
2019-02-25T06:39:58.623Z,1034.76
2019-02-25T06:40:58.639Z,1034.8
2019-02-25T06:41:58.574Z,1034.83
2019-02-25T06:42:58.549Z,1034.82
2019-02-25T06:43:58.524Z,1034.83
2019-02-25T06:44:58.501Z,1034.91
2019-02-25T06:45:58.485Z,1034.87
2019-02-25T06:46:58.461Z,1034.91
2019-02-25T06:47:58.436Z,1034.93
2019-02-25T06:48:58.414Z,1034.93
2019-02-25T06:49:58.392Z,1034.94
2019-02-25T06:50:58.377Z,1034.91
2019-02-25T06:51:58.348Z,1034.93
2019-02-25T06:52:58.331Z,1034.91
2019-02-25T06:53:58.304Z,1034.89
2019-02-25T06:54:58.287Z,1034.9
2019-02-25T06:55:58.265Z,1034.94
2019-02-25T06:56:58.242Z,1034.92
2019-02-25T06:57:58.216Z,1034.92
2019-02-25T06:58:58.195Z,1034.9
2019-02-25T06:59:58.182Z,1034.89
2019-02-25T07:00:58.155Z,1034.9
2019-02-25T07:01:58.127Z,1034.9
2019-02-25T07:02:58.116Z,1034.9
2019-02-25T07:03:58.090Z,1034.91
2019-02-25T07:04:58.069Z,1034.9
2019-02-25T07:05:58.046Z,1034.92
2019-02-25T07:06:58.021Z,1034.88
2019-02-25T07:07:58.005Z,1034.86
2019-02-25T07:08:57.975Z,1034.89
2019-02-25T07:09:57.959Z,1034.87
2019-02-25T07:10:57.934Z,1034.87
2019-02-25T07:11:57.910Z,1034.91
2019-02-25T07:12:57.888Z,1034.92
2019-02-25T07:13:57.870Z,1034.89
2019-02-25T07:14:57.849Z,1034.89
2019-02-25T07:15:57.821Z,1034.9
2019-02-25T07:16:57.800Z,1034.91
2019-02-25T07:17:57.786Z,1034.88
2019-02-25T07:18:57.763Z,1034.93
2019-02-25T07:19:57.733Z,1034.93
2019-02-25T07:20:57.712Z,1034.91
2019-02-25T07:21:57.691Z,1034.91
2019-02-25T07:22:57.672Z,1034.9
2019-02-25T07:23:57.654Z,1034.89
2019-02-25T07:24:57.635Z,1034.89
2019-02-25T07:25:57.609Z,1034.93
2019-02-25T07:26:57.587Z,1034.91
2019-02-25T07:27:57.564Z,1034.91
2019-02-25T07:28:57.542Z,1034.86
2019-02-25T07:29:57.516Z,1034.83
2019-02-25T07:30:57.516Z,1034.89
2019-02-25T07:31:57.476Z,1034.87
2019-02-25T07:32:57.455Z,1034.86
2019-02-25T07:33:57.429Z,1034.92
2019-02-25T07:34:57.413Z,1034.94
2019-02-25T07:35:57.389Z,1034.94
2019-02-25T07:36:57.369Z,1034.96
2019-02-25T07:37:57.345Z,1034.95
2019-02-25T07:38:57.319Z,1034.97
2019-02-25T07:39:57.301Z,1035
2019-02-25T07:40:57.275Z,1034.94
2019-02-25T07:41:57.257Z,1034.98
2019-02-25T07:42:57.235Z,1034.95
2019-02-25T07:43:57.210Z,1034.92
2019-02-25T07:44:57.186Z,1034.92
2019-02-25T07:45:57.168Z,1034.84
2019-02-25T07:46:57.163Z,1034.89
2019-02-25T07:47:57.140Z,1034.88
2019-02-25T07:48:57.100Z,1034.91
2019-02-25T07:49:57.082Z,1034.86
2019-02-25T07:50:57.106Z,1034.88
2019-02-25T07:51:57.034Z,1034.84
2019-02-25T07:52:57.013Z,1034.88
2019-02-25T07:53:56.991Z,1034.88
2019-02-25T07:54:56.973Z,1034.92
2019-02-25T07:56:02.254Z,1034.9
2019-02-25T07:56:56.929Z,1034.91
2019-02-25T07:57:57.009Z,1035
2019-02-25T07:58:56.886Z,1034.92
2019-02-25T07:59:56.866Z,1034.9
2019-02-25T08:00:56.842Z,1034.94
2019-02-25T08:01:56.817Z,1034.91
2019-02-25T08:02:56.794Z,1034.84
2019-02-25T08:03:56.778Z,1034.85
2019-02-25T08:04:56.756Z,1034.88
2019-02-25T08:05:56.733Z,1034.81
2019-02-25T08:06:56.707Z,1034.82
2019-02-25T08:07:56.692Z,1034.87
2019-02-25T08:08:56.668Z,1034.83
2019-02-25T08:09:56.647Z,1034.82
2019-02-25T08:10:56.620Z,1034.82
2019-02-25T08:11:56.603Z,1034.86
2019-02-25T08:12:56.577Z,1034.9
2019-02-25T08:13:56.563Z,1034.96
2019-02-25T08:14:56.534Z,1034.98
2019-02-25T08:15:56.526Z,1035.06
2019-02-25T08:16:56.584Z,1035.03
2019-02-25T08:17:56.483Z,1035.04
2019-02-25T08:18:56.450Z,1035.08
2019-02-25T08:19:56.425Z,1035.19
2019-02-25T08:20:56.404Z,1035.17
2019-02-25T08:21:56.387Z,1035.2
2019-02-25T08:22:56.364Z,1035.23
2019-02-25T08:23:56.337Z,1035.23
2019-02-25T08:24:56.317Z,1035.18
2019-02-25T08:25:56.294Z,1035.2
2019-02-25T08:26:56.275Z,1035.25
2019-02-25T08:27:56.251Z,1035.27
2019-02-25T08:28:56.235Z,1035.29
2019-02-25T08:29:56.206Z,1035.32
2019-02-25T08:30:56.189Z,1035.17
2019-02-25T08:31:56.168Z,1035.39
2019-02-25T08:32:56.146Z,1035.33
2019-02-25T08:33:56.119Z,1035.4
2019-02-25T08:34:56.099Z,1035.4
2019-02-25T08:35:56.086Z,1035.23
2019-02-25T08:37:02.106Z,1035.22
2019-02-25T08:37:56.033Z,1035.25
2019-02-25T08:38:56.012Z,1035.21
2019-02-25T08:39:55.993Z,1035.2
2019-02-25T08:40:55.972Z,1035.21
2019-02-25T08:41:55.951Z,1035.3
2019-02-25T08:42:55.925Z,1035.24
2019-02-25T08:43:55.924Z,1035.37
2019-02-25T08:44:55.881Z,1035.2
2019-02-25T08:45:55.864Z,1035.36
2019-02-25T08:46:55.838Z,1035.23
2019-02-25T08:47:55.828Z,1035.21
2019-02-25T08:48:55.827Z,1035.28
2019-02-25T08:49:55.809Z,1035.33
2019-02-25T08:50:56.282Z,1035.35
2019-02-25T08:51:55.729Z,1035.36
2019-02-25T08:52:55.708Z,1035.34
2019-02-25T08:53:55.690Z,1035.35
2019-02-25T08:54:55.669Z,1035.3
2019-02-25T08:55:55.681Z,1035.35
2019-02-25T08:56:55.620Z,1035.35
2019-02-25T08:57:55.599Z,1035.36
2019-02-25T08:58:55.583Z,1035.32
2019-02-25T08:59:55.556Z,1035.36
2019-02-25T09:00:55.539Z,1035.4
2019-02-25T09:01:55.515Z,1035.29
2019-02-25T09:02:55.503Z,1035.27
2019-02-25T09:03:55.475Z,1035.25
2019-02-25T09:04:55.452Z,1035.26
2019-02-25T09:05:55.447Z,1035.32
2019-02-25T09:06:55.404Z,1035.38
2019-02-25T09:07:55.387Z,1035.3
2019-02-25T09:08:55.365Z,1035.33
2019-02-25T09:09:55.412Z,1035.33
2019-02-25T09:10:55.318Z,1035.38
2019-02-25T09:11:55.302Z,1035.29
2019-02-25T09:12:55.278Z,1035.35
2019-02-25T09:13:55.256Z,1035.4
2019-02-25T09:14:55.230Z,1035.22
2019-02-25T09:15:55.222Z,1035.24
2019-02-25T09:16:55.187Z,1035.26
2019-02-25T09:17:55.286Z,1035.31
2019-02-25T09:18:55.143Z,1035.32
2019-02-25T09:19:55.122Z,1035.28
2019-02-25T09:20:55.100Z,1035.31
2019-02-25T09:21:55.083Z,1035.31
2019-02-25T09:22:55.062Z,1035.33
2019-02-25T09:23:55.035Z,1035.29
2019-02-25T09:24:55.014Z,1035.29
2019-02-25T09:25:55.002Z,1035.29
2019-02-25T09:26:54.975Z,1035.3
2019-02-25T09:27:54.947Z,1035.31
2019-02-25T09:28:54.993Z,1035.36
2019-02-25T09:29:54.906Z,1035.35
2019-02-25T09:30:55.016Z,1035.37
2019-02-25T09:31:54.874Z,1035.38
2019-02-25T09:32:54.845Z,1035.37
2019-02-25T09:33:54.872Z,1035.38
2019-02-25T09:34:54.816Z,1035.35
2019-02-25T09:35:54.779Z,1035.34
2019-02-25T09:36:54.756Z,1035.42
2019-02-25T09:37:54.732Z,1035.28
2019-02-25T09:38:56.611Z,1035.31
2019-02-25T09:39:54.692Z,1035.4
2019-02-25T09:40:54.667Z,1035.38
2019-02-25T09:41:54.651Z,1035.37
2019-02-25T09:42:54.626Z,1035.36
2019-02-25T09:43:54.703Z,1035.54
2019-02-25T09:44:54.579Z,1035.49
2019-02-25T09:45:54.556Z,1035.49
2019-02-25T09:46:54.539Z,1035.54
2019-02-25T09:47:54.514Z,1035.53
2019-02-25T09:48:54.497Z,1035.55
2019-02-25T09:49:54.520Z,1035.54
2019-02-25T09:50:54.453Z,1035.56
2019-02-25T09:51:54.431Z,1035.58
2019-02-25T09:52:54.408Z,1035.55
2019-02-25T09:53:54.396Z,1035.57
2019-02-25T09:54:54.363Z,1035.57
2019-02-25T09:55:54.348Z,1035.63
2019-02-25T09:56:54.321Z,1035.57
2019-02-25T09:57:54.296Z,1035.6
2019-02-25T09:58:54.275Z,1035.58
2019-02-25T09:59:54.357Z,1035.6
2019-02-25T10:00:54.235Z,1035.61
2019-02-25T10:01:54.224Z,1035.6
2019-02-25T10:02:54.191Z,1035.57
2019-02-25T10:03:54.175Z,1035.56
2019-02-25T10:04:54.144Z,1035.62
2019-02-25T10:05:54.136Z,1035.6
2019-02-25T10:07:02.104Z,1035.54
2019-02-25T10:07:54.083Z,1035.58
2019-02-25T10:08:54.057Z,1035.52
2019-02-25T10:09:54.040Z,1035.57
2019-02-25T10:10:54.019Z,1035.59
2019-02-25T10:11:54.014Z,1035.53
2019-02-25T10:12:53.970Z,1035.52
2019-02-25T10:13:53.956Z,1035.54
2019-02-25T10:14:53.930Z,1035.62
2019-02-25T10:15:53.908Z,1035.5
2019-02-25T10:16:54.052Z,1035.5
2019-02-25T10:17:53.861Z,1035.52
2019-02-25T10:18:53.843Z,1035.48
2019-02-25T10:19:53.817Z,1035.52
2019-02-25T10:20:53.801Z,1035.52
2019-02-25T10:21:53.775Z,1035.51
2019-02-25T10:22:53.757Z,1035.44
2019-02-25T10:23:53.747Z,1035.46
2019-02-25T10:24:53.725Z,1035.52
2019-02-25T10:25:53.717Z,1035.49
2019-02-25T10:26:53.665Z,1035.53
2019-02-25T10:27:53.651Z,1035.5
2019-02-25T10:28:53.628Z,1035.5
2019-02-25T10:29:53.603Z,1035.49
2019-02-25T10:30:53.581Z,1035.49
2019-02-25T10:31:53.563Z,1035.49
2019-02-25T10:32:53.543Z,1035.48
2019-02-25T10:33:53.523Z,1035.54
2019-02-25T10:34:53.494Z,1035.52
2019-02-25T10:35:53.477Z,1035.53
2019-02-25T10:36:53.528Z,1035.49
2019-02-25T10:37:53.434Z,1035.5
2019-02-25T10:38:53.408Z,1035.52
2019-02-25T10:39:53.387Z,1035.53
2019-02-25T10:40:53.866Z,1035.6
2019-02-25T10:41:55.439Z,1035.64
2019-02-25T10:42:53.335Z,1035.64
2019-02-25T10:43:53.299Z,1035.58
2019-02-25T10:44:53.280Z,1035.58
2019-02-25T10:45:53.262Z,1035.61
2019-02-25T10:46:53.285Z,1035.65
2019-02-25T10:47:57.722Z,1035.64
2019-02-25T10:48:54.824Z,1035.62
2019-02-25T10:49:53.173Z,1035.7
2019-02-25T10:50:55.888Z,1035.62
2019-02-25T10:51:53.140Z,1035.67
2019-02-25T10:52:53.128Z,1035.62
2019-02-25T10:53:53.594Z,1035.64
2019-02-25T10:54:54.069Z,1035.62
2019-02-25T10:55:53.127Z,1035.6
2019-02-25T10:56:54.042Z,1035.58
2019-02-25T10:57:54.903Z,1035.57
2019-02-25T10:58:52.982Z,1035.53
2019-02-25T10:59:52.979Z,1035.51
2019-02-25T11:00:52.969Z,1035.5
2019-02-25T11:01:52.918Z,1035.48
2019-02-25T11:02:53.516Z,1035.42
2019-02-25T11:03:54.263Z,1035.44
2019-02-25T11:04:53.500Z,1035.49
2019-02-25T11:05:53.934Z,1035.45
2019-02-25T11:06:52.810Z,1035.48
2019-02-25T11:07:52.802Z,1035.46
2019-02-25T11:08:52.928Z,1035.41
2019-02-25T11:09:52.862Z,1035.35
2019-02-25T11:10:54.479Z,1035.38
2019-02-25T11:11:54.805Z,1035.22
2019-02-25T11:12:53.764Z,1035.21
2019-02-25T11:13:52.669Z,1035.2
2019-02-25T11:14:52.664Z,1035.19
2019-02-25T11:15:52.624Z,1035.16
2019-02-25T11:16:52.605Z,1035.2
2019-02-25T11:17:53.888Z,1035.13
2019-02-25T11:18:54.410Z,1035.08
2019-02-25T11:19:54.413Z,1035.1
2019-02-25T11:20:52.517Z,1035.04
2019-02-25T11:21:52.496Z,1035.05
2019-02-25T11:22:52.475Z,1035.06
2019-02-25T11:23:53.353Z,1035
2019-02-25T11:24:53.412Z,1034.98
2019-02-25T11:25:53.626Z,1034.98
2019-02-25T11:26:52.392Z,1034.96
2019-02-25T11:27:52.377Z,1034.93
2019-02-25T11:28:52.354Z,1034.92
2019-02-25T11:29:52.333Z,1034.92
2019-02-25T11:30:53.730Z,1034.95
2019-02-25T11:31:53.544Z,1034.91
2019-02-25T11:32:53.783Z,1034.85
2019-02-25T11:33:52.250Z,1034.81
2019-02-25T11:34:52.228Z,1034.79
2019-02-25T11:35:52.202Z,1034.77
2019-02-25T11:36:53.059Z,1034.79
2019-02-25T11:37:54.208Z,1034.78
2019-02-25T11:38:52.155Z,1034.73
2019-02-25T11:39:52.984Z,1034.74
2019-02-25T11:40:52.109Z,1034.73
2019-02-25T11:41:52.077Z,1034.74
2019-02-25T11:42:52.064Z,1034.9
2019-02-25T11:43:52.777Z,1034.86
2019-02-25T11:44:54.020Z,1034.88
2019-02-25T11:45:51.993Z,1034.96
2019-02-25T11:46:51.970Z,1034.97
2019-02-25T11:47:51.961Z,1035
2019-02-25T11:48:51.934Z,1034.86
2019-02-25T11:49:51.909Z,1034.94
2019-02-25T11:50:51.894Z,1034.87
2019-02-25T11:51:51.871Z,1034.9
2019-02-25T11:52:51.853Z,1034.99
2019-02-25T11:53:51.829Z,1034.84
2019-02-25T11:54:51.876Z,1034.91
2019-02-25T11:55:51.874Z,1034.88
2019-02-25T11:56:51.785Z,1034.83
2019-02-25T11:57:51.745Z,1034.77
2019-02-25T11:58:51.720Z,1034.81
2019-02-25T11:59:51.700Z,1034.81
2019-02-25T12:00:51.678Z,1034.77
2019-02-25T12:01:51.661Z,1034.77
2019-02-25T12:02:51.640Z,1034.74
2019-02-25T12:03:51.615Z,1034.74
2019-02-25T12:04:51.594Z,1034.75
2019-02-25T12:05:52.547Z,1034.72
2019-02-25T12:06:51.557Z,1034.69
2019-02-25T12:07:51.531Z,1034.71